Time;durP1;ratioP1;P1;durP2;ratioP2;P2;SDS_P1;SDS_P2;PMS_P1;PMS_P2;Temp;Humidity;BMP_temperature;BMP_pressure;BME280_temperature;BME280_humidity;BME280_pressure;Samples;Min_cycle;Max_cycle;Signal;HPM_P1;HPM_P2
2022/04/18 00:00:12;;;;;;;8.65;3.80;;;;;;;12.80;29.82;100414.72;5090796;28;20048;-59
2022/04/18 00:02:38;;;;;;;5.80;3.72;;;;;;;12.77;29.90;100413.13;5090982;28;20458;-59
2022/04/18 00:05:06;;;;;;;6.30;3.78;;;;;;;12.76;30.16;100414.03;5091028;28;20051;-59
2022/04/18 00:07:32;;;;;;;5.63;3.58;;;;;;;12.74;29.78;100410.63;5089693;28;20048;-60
2022/04/18 00:09:59;;;;;;;6.20;3.95;;;;;;;12.72;30.30;100414.31;5090808;28;20056;-61
2022/04/18 00:12:25;;;;;;;7.78;3.78;;;;;;;12.70;30.03;100408.25;5090983;28;20051;-59
2022/04/18 00:14:52;;;;;;;6.72;4.30;;;;;;;12.68;30.18;100404.84;5090782;28;20485;-59
2022/04/18 00:17:18;;;;;;;9.02;4.13;;;;;;;12.66;30.24;100406.69;5090112;28;20847;-58
2022/04/18 00:19:45;;;;;;;6.10;3.95;;;;;;;12.63;30.26;100398.03;5090636;28;20203;-61
2022/04/18 00:22:11;;;;;;;8.68;3.67;;;;;;;12.61;30.42;100397.28;5090856;28;20443;-60
2022/04/18 00:24:38;;;;;;;5.38;3.33;;;;;;;12.59;30.51;100391.22;5090579;28;20074;-60
2022/04/18 00:27:10;;;;;;;5.93;3.47;;;;;;;12.57;30.46;100390.44;5089336;28;20537;-60
2022/04/18 00:29:37;;;;;;;5.20;3.78;;;;;;;12.56;30.50;100386.09;5090333;28;20051;-62
2022/04/18 00:32:04;;;;;;;7.00;3.97;;;;;;;12.55;30.63;100383.53;5090720;28;20048;-59
2022/04/18 00:34:32;;;;;;;6.85;4.15;;;;;;;12.51;30.81;100378.44;5090575;28;20044;-59
2022/04/18 00:36:58;;;;;;;8.07;3.90;;;;;;;12.49;30.89;100371.53;5090643;28;20411;-59
2022/04/18 00:39:25;;;;;;;6.88;3.90;;;;;;;12.48;30.88;100380.38;5090452;28;20102;-58
2022/04/18 00:41:51;;;;;;;5.65;3.50;;;;;;;12.45;31.05;100364.72;5090508;28;20094;-61
2022/04/18 00:44:18;;;;;;;6.57;3.92;;;;;;;12.44;31.23;100374.41;5090488;28;20121;-59
2022/04/18 00:46:44;;;;;;;6.38;3.90;;;;;;;12.42;31.22;100373.66;5090833;28;20514;-59
2022/04/18 00:49:11;;;;;;;7.15;3.63;;;;;;;12.40;31.24;100377.34;5090199;28;20408;-61
2022/04/18 00:51:37;;;;;;;9.30;4.53;;;;;;;12.36;31.45;100371.34;5090425;28;20044;-61
2022/04/18 00:54:04;;;;;;;7.03;3.55;;;;;;;12.34;31.69;100363.50;5090524;28;20102;-61
2022/04/18 00:56:31;;;;;;;5.88;3.70;;;;;;;12.32;31.83;100362.75;5090276;28;20396;-59
2022/04/18 00:58:58;;;;;;;6.45;3.75;;;;;;;12.30;31.71;100359.31;5089279;28;20074;-60
2022/04/18 01:01:26;;;;;;;7.28;4.32;;;;;;;12.29;31.79;100349.72;5090126;28;20097;-60
2022/04/18 01:03:52;;;;;;;5.35;3.85;;;;;;;12.28;31.74;100358.56;5090661;28;20169;-58
2022/04/18 01:06:19;;;;;;;4.95;3.63;;;;;;;12.27;32.17;100354.25;5090147;28;20654;-58
2022/04/18 01:08:48;;;;;;;6.22;3.85;;;;;;;12.25;32.04;100342.91;5090280;28;20098;-61
2022/04/18 01:11:16;;;;;;;5.60;3.58;;;;;;;12.25;32.23;100350.81;5088461;28;20534;-60
2022/04/18 01:13:44;;;;;;;5.60;3.38;;;;;;;12.23;32.17;100350.91;5072665;28;20399;-60
2022/04/18 01:16:11;;;;;;;5.18;3.42;;;;;;;12.22;31.81;100337.78;5088697;28;20056;-61
2022/04/18 01:18:38;;;;;;;8.02;3.53;;;;;;;12.20;32.16;100339.66;5090168;28;20101;-61
2022/04/18 01:21:09;;;;;;;4.78;3.15;;;;;;;12.16;32.33;100332.84;5088478;28;20051;-61
2022/04/18 01:23:36;;;;;;;6.38;3.67;;;;;;;12.16;31.82;100338.13;5090017;28;20102;-59
2022/04/18 01:28:58;;;;;;;5.15;3.25;;;;;;;12.15;32.18;100328.50;5091154;28;20093;-60
2022/04/18 01:31:36;;;;;;;4.70;3.17;;;;;;;12.09;32.88;100333.19;5093493;28;20460;-60
2022/04/18 01:34:07;;;;;;;5.57;3.35;;;;;;;12.09;32.97;100322.63;5092342;28;20052;-61
2022/04/18 01:36:34;;;;;;;8.50;3.75;;;;;;;12.09;32.28;100322.63;5092661;28;20117;-59
2022/04/18 01:39:01;;;;;;;5.47;3.75;;;;;;;12.07;32.34;100319.22;5093752;28;20108;-60
2022/04/18 01:41:27;;;;;;;6.78;3.85;;;;;;;12.04;32.76;100316.69;5093762;28;20458;-60
2022/04/18 01:43:54;;;;;;;5.75;3.65;;;;;;;12.02;32.51;100313.31;5093640;28;20052;-61
2022/04/18 01:46:20;;;;;;;5.88;3.92;;;;;;;12.00;32.76;100309.88;5093394;28;20070;-59
2022/04/18 01:48:50;;;;;;;7.82;3.97;;;;;;;11.98;32.87;100311.75;5093309;28;20063;-62
2022/04/18 01:51:17;;;;;;;4.57;3.47;;;;;;;11.97;32.93;100310.06;5093195;28;20044;-62
2022/04/18 01:53:43;;;;;;;8.23;4.30;;;;;;;11.95;32.87;100312.78;5093449;28;20439;-59
2022/04/18 01:56:10;;;;;;;10.35;4.05;;;;;;;11.92;33.30;100314.75;5093192;28;20554;-60
2022/04/18 01:58:36;;;;;;;6.85;3.95;;;;;;;11.90;33.21;100316.59;5092060;28;20048;-60
2022/04/18 02:01:03;;;;;;;7.82;3.75;;;;;;;11.88;33.13;100318.47;5092801;28;20454;-60
2022/04/18 02:03:30;;;;;;;4.45;3.30;;;;;;;11.85;33.32;100314.22;5093408;28;20162;-60
2022/04/18 02:05:57;;;;;;;6.40;3.63;;;;;;;11.81;33.24;100310.88;5093232;28;20048;-59
2022/04/18 02:08:24;;;;;;;4.95;3.53;;;;;;;11.78;33.28;100312.84;5091831;28;20102;-60
2022/04/18 02:10:51;;;;;;;6.15;3.58;;;;;;;11.74;33.24;100306.88;5091383;28;20553;-59
2022/04/18 02:13:18;;;;;;;5.78;3.40;;;;;;;11.71;33.25;100307.03;5092973;28;20044;-58
2022/04/18 02:15:44;;;;;;;5.07;3.28;;;;;;;11.67;33.17;100313.41;5092814;28;20404;-60
2022/04/18 02:18:11;;;;;;;6.43;3.47;;;;;;;11.63;33.33;100304.81;5092975;28;20120;-60
2022/04/18 02:20:38;;;;;;;5.93;3.67;;;;;;;11.59;33.25;100314.66;5092505;28;20511;-60
2022/04/18 02:23:04;;;;;;;5.47;3.88;;;;;;;11.56;33.44;100312.16;5092893;28;20496;-65
2022/04/18 02:25:31;;;;;;;7.57;3.35;;;;;;;11.55;33.43;100309.63;5093073;28;20714;-60
2022/04/18 02:27:58;;;;;;;5.28;3.50;;;;;;;11.53;33.67;100316.75;5092838;28;20052;-61
2022/04/18 02:30:24;;;;;;;6.70;3.80;;;;;;;11.53;33.61;100311.47;5092511;28;20055;-60
2022/04/18 02:32:51;;;;;;;7.55;3.75;;;;;;;11.51;33.69;100314.19;5092929;28;20400;-59
2022/04/18 02:35:22;;;;;;;5.95;3.67;;;;;;;11.49;34.06;100307.31;5092825;28;20048;-60
2022/04/18 02:37:50;;;;;;;6.00;3.40;;;;;;;11.49;33.84;100300.25;5091396;28;20068;-58
2022/04/18 02:40:17;;;;;;;7.55;3.75;;;;;;;11.50;33.72;100307.22;5090269;28;20048;-59
2022/04/18 02:42:44;;;;;;;4.72;3.08;;;;;;;11.48;33.96;100295.94;5092544;28;20485;-60
2022/04/18 02:45:18;;;;;;;4.90;3.40;;;;;;;11.45;34.08;100296.91;5092530;28;20381;-59
2022/04/18 02:47:47;;;;;;;5.22;3.20;;;;;;;11.46;33.86;100297.78;5091069;28;20058;-59
2022/04/18 02:50:14;;;;;;;5.78;3.08;;;;;;;11.44;34.21;100304.94;5090938;28;20056;-62
2022/04/18 02:52:42;;;;;;;4.35;2.90;;;;;;;11.40;34.06;100298.94;5092320;28;20051;-60
2022/04/18 02:55:11;;;;;;;4.57;3.20;;;;;;;11.40;33.80;100298.09;5092306;28;20052;-61
2022/04/18 02:57:39;;;;;;;6.20;3.00;;;;;;;11.37;34.11;100292.97;5092177;28;20070;-62
2022/04/18 03:00:06;;;;;;;4.63;3.15;;;;;;;11.33;34.28;100287.88;5091912;28;20488;-59
2022/04/18 03:02:34;;;;;;;4.38;3.15;;;;;;;11.31;34.32;100287.09;5092006;28;20048;-60
2022/04/18 03:05:00;;;;;;;3.85;2.63;;;;;;;11.30;34.52;100287.19;5090906;28;20637;-59
2022/04/18 03:07:27;;;;;;;6.13;3.47;;;;;;;11.28;34.16;100278.47;5091888;28;20052;-59
2022/04/18 03:09:53;;;;;;;3.78;2.63;;;;;;;11.27;34.66;100285.56;5091504;28;20140;-60
2022/04/18 03:12:20;;;;;;;3.47;2.67;;;;;;;11.27;34.68;100282.06;5091933;28;20048;-59
2022/04/18 03:14:46;;;;;;;4.45;3.08;;;;;;;11.25;34.90;100282.13;5091681;28;20655;-61
2022/04/18 03:17:13;;;;;;;4.53;2.80;;;;;;;11.24;34.94;100276.94;5091715;28;20408;-59
2022/04/18 03:19:40;;;;;;;4.85;2.85;;;;;;;11.22;34.77;100271.78;5090057;28;20048;-60
2022/04/18 03:22:07;;;;;;;5.68;3.33;;;;;;;11.19;34.97;100275.41;5091522;28;20060;-59
2022/04/18 03:24:34;;;;;;;4.72;2.63;;;;;;;11.17;34.92;100265.84;5091508;28;20048;-60
2022/04/18 03:27:04;;;;;;;3.10;2.70;;;;;;;11.13;35.50;100270.44;5091678;28;20060;-59
2022/04/18 03:29:32;;;;;;;4.50;2.60;;;;;;;11.13;35.03;100270.44;5091397;28;20488;-61
2022/04/18 03:31:59;;;;;;;5.72;3.00;;;;;;;11.11;35.05;100264.41;5091340;28;20048;-59
2022/04/18 03:34:25;;;;;;;4.63;2.88;;;;;;;11.09;35.15;100263.63;5091420;28;20056;-60
2022/04/18 03:39:53;;;;;;;6.18;2.67;;;;;;;11.07;35.33;100271.59;5091378;28;20044;-61
2022/04/18 03:42:31;;;;;;;3.97;2.97;;;;;;;11.03;35.68;100267.41;5091004;28;20044;-59
2022/04/18 03:45:04;;;;;;;3.80;2.63;;;;;;;11.00;35.87;100262.31;5091195;28;20094;-59
2022/04/18 03:47:31;;;;;;;3.63;2.60;;;;;;;11.00;35.27;100254.44;5089787;28;20055;-61
2022/04/18 03:49:57;;;;;;;5.05;2.63;;;;;;;10.98;35.50;100253.63;5090896;28;20040;-60
2022/04/18 03:52:25;;;;;;;3.58;2.58;;;;;;;10.96;35.71;100263.41;5091183;28;20056;-59
2022/04/18 03:54:52;;;;;;;8.55;2.58;;;;;;;10.94;35.82;100250.31;5091185;28;20048;-62
2022/04/18 03:57:18;;;;;;;6.95;2.80;;;;;;;10.92;35.56;100251.31;5089538;28;20458;-58
2022/04/18 03:59:46;;;;;;;5.22;3.13;;;;;;;10.89;35.78;100247.06;5090815;28;20056;-60
2022/04/18 04:02:13;;;;;;;4.85;2.70;;;;;;;10.88;35.75;100241.88;5089495;28;20109;-60
2022/04/18 04:04:41;;;;;;;6.07;3.55;;;;;;;10.86;36.07;100241.09;5089713;28;20558;-62
2022/04/18 04:07:08;;;;;;;4.85;2.60;;;;;;;10.85;35.90;100239.38;5090932;28;20066;-59
2022/04/18 04:09:35;;;;;;;7.00;2.88;;;;;;;10.82;36.12;100241.25;5090537;28;20048;-59
2022/04/18 04:12:03;;;;;;;3.22;2.72;;;;;;;10.81;36.08;100239.53;5090760;28;20044;-59
2022/04/18 04:14:30;;;;;;;3.55;2.50;;;;;;;10.80;36.37;100235.19;5090619;28;20484;-59
2022/04/18 04:16:56;;;;;;;3.50;2.35;;;;;;;10.79;36.13;100235.28;5090822;28;20056;-59
2022/04/18 04:19:23;;;;;;;13.32;2.70;;;;;;;10.77;36.38;100239.78;5090760;28;20139;-60
2022/04/18 04:21:50;;;;;;;4.68;2.55;;;;;;;10.77;36.41;100235.34;5090555;28;20044;-59
2022/04/18 04:24:16;;;;;;;4.35;2.50;;;;;;;10.76;36.42;100233.66;5090546;28;20059;-60
2022/04/18 04:26:44;;;;;;;5.05;2.45;;;;;;;10.77;36.45;100237.16;5090551;28;20044;-60
2022/04/18 04:29:11;;;;;;;4.05;2.50;;;;;;;10.77;36.35;100237.97;5088842;28;20075;-60
2022/04/18 04:31:38;;;;;;;6.35;2.72;;;;;;;10.77;36.56;100234.50;5090661;28;20121;-58
2022/04/18 04:34:04;;;;;;;4.53;2.67;;;;;;;10.77;36.54;100232.72;5090635;28;20067;-63
2022/04/18 04:36:37;;;;;;;3.88;2.65;;;;;;;10.77;36.46;100237.97;5090702;28;20102;-59
2022/04/18 04:39:04;;;;;;;3.50;2.33;;;;;;;10.77;36.79;100237.16;5090496;28;20060;-60
2022/04/18 04:41:30;;;;;;;4.60;2.67;;;;;;;10.76;36.70;100236.28;5090206;28;20059;-59
2022/04/18 04:43:57;;;;;;;5.18;2.25;;;;;;;10.76;36.60;100233.66;5090331;28;20056;-61
2022/04/18 04:46:23;;;;;;;4.60;2.63;;;;;;;10.76;36.72;100238.09;5090691;28;20044;-58
2022/04/18 04:48:50;;;;;;;2.85;2.38;;;;;;;10.74;36.67;100237.28;5090231;28;20056;-61
2022/04/18 04:51:16;;;;;;;5.22;2.63;;;;;;;10.75;36.97;100239.00;5089733;28;20130;-62
2022/04/18 04:53:43;;;;;;;5.15;2.90;;;;;;;10.74;36.90;100238.16;5090671;28;20117;-60
2022/04/18 04:56:10;;;;;;;3.60;2.22;;;;;;;10.76;37.22;100232.81;5090435;28;20059;-60
2022/04/18 04:58:36;;;;;;;3.42;2.25;;;;;;;10.77;37.00;100239.78;5090636;28;20393;-60
2022/04/18 05:01:03;;;;;;;3.67;2.38;;;;;;;10.78;37.00;100238.84;5090352;28;20056;-61
2022/04/18 05:03:30;;;;;;;3.97;2.47;;;;;;;10.78;36.93;100242.34;5091004;28;20044;-61
2022/04/18 05:05:56;;;;;;;3.58;2.40;;;;;;;10.79;37.35;100240.53;5093274;28;20056;-58
2022/04/18 05:08:23;;;;;;;3.33;2.35;;;;;;;10.79;37.34;100241.41;5094103;28;20044;-59
2022/04/18 05:10:49;;;;;;;3.92;2.47;;;;;;;10.79;37.35;100244.03;5093770;28;20047;-61
2022/04/18 05:13:16;;;;;;;2.85;2.00;;;;;;;10.80;37.37;100243.09;5093033;28;20070;-60
2022/04/18 05:15:42;;;;;;;4.13;2.58;;;;;;;10.80;37.34;100243.09;5094119;28;20098;-59
2022/04/18 05:18:09;;;;;;;4.03;2.28;;;;;;;10.84;37.37;100242.97;5094158;28;20553;-60
2022/04/18 05:20:35;;;;;;;4.55;2.72;;;;;;;10.84;37.44;100241.16;5093553;28;20102;-64
2022/04/18 05:23:02;;;;;;;3.92;2.90;;;;;;;10.87;37.34;100246.28;5093831;28;20060;-60
2022/04/18 05:25:30;;;;;;;4.97;2.75;;;;;;;10.88;37.33;100247.97;5092652;28;20047;-60
2022/04/18 05:27:57;;;;;;;5.15;2.97;;;;;;;10.90;37.40;100248.75;5093505;28;20062;-60
2022/04/18 05:30:24;;;;;;;4.68;2.75;;;;;;;10.94;37.28;100252.09;5093442;28;20048;-61
2022/04/18 05:32:50;;;;;;;5.20;2.70;;;;;;;10.98;37.32;100256.28;5093705;28;20052;-59
2022/04/18 05:35:17;;;;;;;4.80;2.88;;;;;;;11.00;37.48;100251.78;5093744;28;20121;-60
2022/04/18 05:37:43;;;;;;;4.40;2.83;;;;;;;11.03;37.61;100254.25;5093722;28;20048;-63
2022/04/18 05:40:10;;;;;;;4.82;2.78;;;;;;;11.06;37.92;100254.09;5093673;28;20052;-61
2022/04/18 05:42:37;;;;;;;4.53;2.75;;;;;;;11.11;37.95;100255.66;5093429;28;20423;-59
2022/04/18 05:45:06;;;;;;;3.63;2.75;;;;;;;11.13;37.71;100254.63;5093229;28;20056;-60
2022/04/18 05:47:33;;;;;;;3.75;2.60;;;;;;;11.18;37.95;100252.63;5092284;28;20064;-60
2022/04/18 05:49:59;;;;;;;6.55;2.90;;;;;;;11.19;37.74;100259.59;5093197;28;20040;-60
2022/04/18 05:52:26;;;;;;;6.78;2.75;;;;;;;11.23;37.60;100249.75;5093315;28;20500;-62
2022/04/18 05:54:52;;;;;;;4.25;2.72;;;;;;;11.27;37.59;100263.59;5093445;28;20142;-60
2022/04/18 05:57:21;;;;;;;3.70;2.25;;;;;;;11.31;37.62;100249.34;5093618;28;20056;-60
2022/04/18 05:59:48;;;;;;;4.93;2.90;;;;;;;11.37;37.90;100250.81;5092834;28;20090;-60
2022/04/18 06:02:15;;;;;;;3.42;2.25;;;;;;;11.40;37.62;100256.75;5093175;28;20044;-60
2022/04/18 06:04:42;;;;;;;4.25;2.65;;;;;;;11.45;37.68;100253.91;5092474;28;20137;-61
2022/04/18 06:07:08;;;;;;;6.68;2.65;;;;;;;11.51;37.76;100258.84;5091519;28;20048;-61
2022/04/18 06:09:35;;;;;;;3.92;2.72;;;;;;;11.56;37.83;100258.59;5092525;28;20048;-60
2022/04/18 06:12:02;;;;;;;4.30;2.15;;;;;;;11.60;37.67;100258.34;5093375;28;20443;-60
2022/04/18 06:14:28;;;;;;;3.13;2.50;;;;;;;11.66;37.50;100257.16;5092793;28;20048;-62
2022/04/18 06:16:55;;;;;;;4.88;2.40;;;;;;;11.71;37.50;100257.75;5092182;28;20458;-60
2022/04/18 06:19:21;;;;;;;3.63;2.75;;;;;;;11.75;37.71;100258.47;5092592;28;20121;-59
2022/04/18 06:21:48;;;;;;;3.63;2.95;;;;;;;11.80;37.46;100259.06;5092526;28;20051;-61
2022/04/18 06:24:16;;;;;;;6.55;3.15;;;;;;;11.85;37.50;100262.31;5093033;28;20064;-63
2022/04/18 06:26:42;;;;;;;4.60;3.17;;;;;;;11.90;37.46;100264.69;5091700;28;20067;-60
2022/04/18 06:29:09;;;;;;;6.20;3.20;;;;;;;11.96;37.46;100258.25;5092551;28;20048;-62
2022/04/18 06:31:36;;;;;;;5.47;3.10;;;;;;;12.02;37.58;100257.91;5091504;28;20055;-60
2022/04/18 06:34:03;;;;;;;7.05;2.88;;;;;;;12.07;37.28;100261.16;5092615;28;20060;-60
2022/04/18 06:36:30;;;;;;;5.70;2.65;;;;;;;12.14;37.58;100268.75;5092312;28;20055;-61
2022/04/18 06:38:56;;;;;;;3.72;2.70;;;;;;;12.19;37.43;100269.34;5091459;28;20101;-60
2022/04/18 06:41:23;;;;;;;5.10;2.97;;;;;;;12.25;37.09;100275.13;5092280;28;20056;-62
2022/04/18 06:43:50;;;;;;;4.53;2.80;;;;;;;12.31;37.06;100267.81;5092452;28;20061;-60
2022/04/18 06:46:16;;;;;;;5.05;3.08;;;;;;;12.36;37.03;100276.31;5092407;28;20052;-61
2022/04/18 06:48:43;;;;;;;4.80;2.40;;;;;;;12.41;36.96;100271.63;5092326;28;20106;-62
2022/04/18 06:51:10;;;;;;;4.25;3.03;;;;;;;12.47;36.85;100270.41;5092069;28;20052;-62
2022/04/18 06:53:36;;;;;;;3.88;2.63;;;;;;;12.55;36.76;100272.63;5092102;28;20516;-61
2022/04/18 06:58:48;;;;;;;4.97;3.10;;;;;;;12.66;36.70;100258.78;5092172;28;20044;-61
2022/04/18 07:01:15;;;;;;;7.72;2.88;;;;;;;12.71;36.68;100264.69;5091898;28;20052;-60
2022/04/18 07:03:42;;;;;;;5.00;2.63;;;;;;;12.77;36.83;100261.69;5092242;28;20185;-60
2022/04/18 07:06:09;;;;;;;5.70;3.20;;;;;;;12.83;37.03;100261.34;5091290;28;20052;-60
2022/04/18 07:08:35;;;;;;;4.28;2.60;;;;;;;12.88;36.53;100263.69;5091779;28;20523;-60
2022/04/18 07:11:02;;;;;;;3.35;2.47;;;;;;;12.95;36.12;100256.25;5091645;28;20101;-60
2022/04/18 07:13:29;;;;;;;3.90;2.67;;;;;;;13.00;35.92;100257.69;5092035;28;20048;-60
2022/04/18 07:15:55;;;;;;;5.40;2.88;;;;;;;13.06;35.95;100261.75;5091823;28;20490;-61
2022/04/18 07:18:22;;;;;;;4.03;3.10;;;;;;;13.13;35.87;100259.59;5092007;28;20083;-61
2022/04/18 07:20:52;;;;;;;5.78;3.17;;;;;;;13.19;36.00;100253.09;5091721;28;20043;-60
2022/04/18 07:23:18;;;;;;;3.80;2.83;;;;;;;13.24;35.67;100261.59;5091896;28;20056;-61
2022/04/18 07:25:45;;;;;;;4.88;3.15;;;;;;;13.29;35.60;100259.53;5091486;28;20404;-62
2022/04/18 07:28:11;;;;;;;4.53;2.85;;;;;;;13.34;35.58;100261.91;5091268;28;20451;-61
2022/04/18 07:30:38;;;;;;;5.55;3.17;;;;;;;13.40;35.68;100266.81;5091361;28;20052;-62
2022/04/18 07:33:04;;;;;;;5.22;3.20;;;;;;;13.45;35.82;100262.09;5091694;28;20056;-62
2022/04/18 07:35:32;;;;;;;6.43;3.70;;;;;;;13.50;36.07;100261.84;5091688;28;20056;-60
2022/04/18 07:40:44;;;;;;;5.28;2.67;;;;;;;13.63;36.01;100268.09;5091023;28;20052;-61
2022/04/18 07:43:10;;;;;;;4.18;2.92;;;;;;;13.68;35.88;100266.00;5091627;28;20048;-62
2022/04/18 07:45:39;;;;;;;5.18;3.50;;;;;;;13.76;35.68;100264.69;5091222;28;20056;-61
2022/04/18 07:48:08;;;;;;;7.07;3.03;;;;;;;13.81;35.65;100263.44;5089509;28;20044;-60
2022/04/18 07:53:20;;;;;;;4.03;2.70;;;;;;;13.94;35.51;100270.59;5091220;28;20056;-61
2022/04/18 07:55:48;;;;;;;3.65;2.70;;;;;;;13.99;35.13;100263.22;5089235;28;20470;-62
2022/04/18 07:58:14;;;;;;;4.35;2.55;;;;;;;14.05;35.35;100268.13;5089192;28;20125;-61
2022/04/18 08:00:41;;;;;;;4.25;2.63;;;;;;;14.12;35.08;100268.59;5090429;28;20489;-63
2022/04/18 08:03:07;;;;;;;3.55;2.63;;;;;;;14.17;34.94;100261.19;5090415;28;20102;-60
2022/04/18 08:05:34;;;;;;;5.50;3.22;;;;;;;14.24;34.68;100266.09;5090601;28;20044;-60
2022/04/18 08:08:00;;;;;;;3.75;2.55;;;;;;;14.30;34.93;100263.06;5090779;28;20052;-60
2022/04/18 08:10:28;;;;;;;3.50;2.30;;;;;;;14.36;34.95;100259.16;5090183;28;20462;-62
2022/04/18 08:12:55;;;;;;;4.65;2.58;;;;;;;14.41;34.36;100265.88;5089930;28;20492;-63
2022/04/18 08:15:22;;;;;;;3.80;2.58;;;;;;;14.49;34.66;100267.16;5089575;28;20056;-60
2022/04/18 08:17:48;;;;;;;3.63;2.75;;;;;;;14.54;34.78;100262.41;5090663;28;20044;-60
2022/04/18 08:20:15;;;;;;;3.58;2.70;;;;;;;14.62;34.83;100260.13;5090391;28;20104;-60
2022/04/18 08:22:41;;;;;;;4.15;2.60;;;;;;;14.69;34.74;100261.38;5090515;28;20523;-61
2022/04/18 08:25:08;;;;;;;9.32;2.80;;;;;;;14.76;34.66;100253.91;5090393;28;20476;-61
2022/04/18 08:27:35;;;;;;;5.35;2.40;;;;;;;14.84;34.33;100259.56;5090566;28;20052;-61
2022/04/18 08:30:02;;;;;;;5.38;2.60;;;;;;;14.94;33.87;100265.09;5090445;28;20052;-62
2022/04/18 08:32:33;;;;;;;4.82;2.80;;;;;;;15.01;33.58;100254.06;5089358;28;20052;-61
2022/04/18 08:34:59;;;;;;;4.25;2.35;;;;;;;15.13;33.45;100257.69;5089089;28;20070;-61
2022/04/18 08:37:26;;;;;;;3.17;2.45;;;;;;;15.21;33.60;100260.66;5090334;28;20048;-64
2022/04/18 08:39:52;;;;;;;5.10;2.63;;;;;;;15.28;33.47;100261.09;5089606;28;20480;-60
2022/04/18 08:42:21;;;;;;;4.03;2.65;;;;;;;15.35;33.26;100252.59;5090338;28;20496;-60
2022/04/18 08:44:52;;;;;;;3.50;2.40;;;;;;;15.43;32.78;100251.22;5089175;28;20077;-61
2022/04/18 08:52:52;;;;;;;3.55;2.60;;;;;;;15.71;32.08;100258.09;5090331;28;20161;-60
2022/04/18 08:55:19;;;;;;;5.53;2.78;;;;;;;15.81;31.95;100262.75;5090358;28;20484;-60
2022/04/18 08:57:46;;;;;;;4.00;2.47;;;;;;;15.89;32.16;100257.75;5090301;28;20077;-63
2022/04/18 09:00:12;;;;;;;3.47;2.50;;;;;;;15.98;32.57;100258.91;5090276;28;20052;-59
2022/04/18 09:02:39;;;;;;;3.72;2.75;;;;;;;16.06;32.68;100250.38;5090171;28;20056;-61
2022/04/18 09:05:13;;;;;;;4.30;2.35;;;;;;;16.14;32.80;100254.19;5090173;28;20477;-60
2022/04/18 09:07:44;;;;;;;2.92;2.30;;;;;;;16.27;32.74;100255.97;5090187;28;20048;-59
2022/04/18 09:10:11;;;;;;;3.40;2.47;;;;;;;16.41;32.46;100247.00;5089994;28;20044;-60
2022/04/18 09:12:44;;;;;;;4.53;2.45;;;;;;;16.52;32.91;100240.88;5088827;28;20055;-61
2022/04/18 09:15:12;;;;;;;3.15;2.78;;;;;;;16.65;32.09;100251.41;5090149;28;20044;-62
2022/04/18 09:17:38;;;;;;;3.83;2.78;;;;;;;16.76;31.78;100242.63;5088789;28;20051;-62
2022/04/18 09:20:10;;;;;;;4.03;2.58;;;;;;;16.86;31.75;100240.97;5089865;28;20048;-61
2022/04/18 09:22:42;;;;;;;5.53;3.03;;;;;;;16.93;31.13;100238.69;5088821;28;20538;-61
2022/04/18 09:25:19;;;;;;;4.95;2.70;;;;;;;17.00;30.93;100239.94;5088688;28;20640;-61
2022/04/18 09:27:56;;;;;;;4.72;2.85;;;;;;;17.11;31.00;100238.28;5090227;28;20074;-60
2022/04/18 09:30:24;;;;;;;3.90;2.70;;;;;;;17.21;30.76;100233.09;5088615;28;20048;-60
2022/04/18 09:33:00;;;;;;;3.15;2.63;;;;;;;17.27;30.68;100232.63;5088745;28;20048;-60
2022/04/18 09:35:28;;;;;;;3.38;2.92;;;;;;;17.39;31.21;100228.16;5090010;28;20444;-62
2022/04/18 09:38:00;;;;;;;2.97;2.63;;;;;;;17.47;29.89;100217.78;5088841;28;20169;-60
2022/04/18 09:40:27;;;;;;;3.75;2.40;;;;;;;17.61;30.44;100221.16;5088660;28;20056;-62
2022/04/18 09:42:57;;;;;;;3.08;2.65;;;;;;;17.70;30.13;100220.41;5089951;28;20048;-61
2022/04/18 09:45:29;;;;;;;2.97;2.35;;;;;;;17.81;30.62;100223.06;5088618;28;20056;-61
2022/04/18 09:48:00;;;;;;;4.53;3.10;;;;;;;17.91;30.09;100217.00;5089697;28;20105;-62
2022/04/18 09:53:17;;;;;;;3.30;2.75;;;;;;;18.09;31.06;100218.19;5093547;28;20048;-60
2022/04/18 09:55:46;;;;;;;3.78;2.83;;;;;;;18.19;30.25;100223.63;5093502;28;20077;-61
2022/04/18 09:58:13;;;;;;;3.15;2.80;;;;;;;18.27;30.79;100212.31;5091922;28;20052;-61
2022/04/18 10:01:03;;;;;;;3.95;2.72;;;;;;;18.36;30.68;100208.88;5091881;28;20079;-61
2022/04/18 10:03:33;;;;;;;3.80;2.95;;;;;;;18.49;32.19;100208.72;5092042;28;20265;-60
2022/04/18 10:06:01;;;;;;;4.05;3.28;;;;;;;18.59;32.52;100206.16;5091732;28;20048;-60
2022/04/18 10:08:28;;;;;;;5.85;3.17;;;;;;;18.72;31.77;100207.75;5091855;28;20094;-61
2022/04/18 10:10:57;;;;;;;4.68;3.45;;;;;;;18.84;31.26;100209.38;5092676;28;20117;-61
2022/04/18 10:13:25;;;;;;;5.40;4.03;;;;;;;18.96;31.75;100207.53;5091927;28;20059;-60
2022/04/18 10:15:53;;;;;;;5.95;4.05;;;;;;;19.08;30.35;100204.78;5092931;28;20050;-61
2022/04/18 10:18:23;;;;;;;5.25;3.88;;;;;;;19.20;30.59;100197.53;5091669;28;20134;-61
2022/04/18 10:20:55;;;;;;;6.03;3.65;;;;;;;19.30;30.96;100192.25;5092630;28;20093;-60
2022/04/18 10:23:47;;;;;;;8.57;3.85;;;;;;;19.36;31.16;100186.41;5091542;28;20056;-63
2022/04/18 10:26:27;;;;;;;6.53;4.22;;;;;;;19.48;32.64;100187.13;5093045;28;20617;-60
2022/04/18 10:28:56;;;;;;;8.73;4.05;;;;;;;19.61;31.65;100182.41;5091534;28;20052;-61
2022/04/18 10:31:31;;;;;;;10.63;4.28;;;;;;;19.69;32.03;100183.56;5091110;28;20047;-61
2022/04/18 10:33:59;;;;;;;5.50;3.88;;;;;;;19.79;31.85;100177.25;5092636;28;20154;-61
2022/04/18 10:36:28;;;;;;;5.40;3.65;;;;;;;19.89;31.82;100171.91;5091553;28;20048;-60
2022/04/18 10:38:56;;;;;;;4.68;3.28;;;;;;;20.00;31.02;100162.94;5092414;28;20097;-61
2022/04/18 10:41:40;;;;;;;4.50;3.75;;;;;;;20.06;30.38;100166.91;5092105;28;20138;-62
2022/04/18 10:44:13;;;;;;;5.38;3.78;;;;;;;20.21;31.48;100161.13;5092441;28;20052;-60
2022/04/18 10:46:52;;;;;;;6.00;3.65;;;;;;;20.29;30.79;100158.59;5092606;28;20093;-62
2022/04/18 10:49:27;;;;;;;6.15;3.50;;;;;;;20.44;30.69;100156.34;5092093;28;20527;-61
2022/04/18 10:51:54;;;;;;;5.57;3.78;;;;;;;20.53;30.69;100158.16;5090753;28;20408;-60
2022/04/18 10:54:23;;;;;;;5.13;3.50;;;;;;;20.65;30.58;100155.31;5092047;28;20093;-61
2022/04/18 10:56:49;;;;;;;5.43;3.75;;;;;;;20.82;31.94;100159.09;5090968;28;20052;-60
2022/04/18 10:59:21;;;;;;;5.70;3.92;;;;;;;21.06;31.04;100161.31;5091939;28;20055;-63
2022/04/18 11:01:49;;;;;;;4.55;3.20;;;;;;;21.40;30.99;100157.22;5090230;28;20047;-61
2022/04/18 11:04:16;;;;;;;3.65;3.05;;;;;;;21.86;31.07;100151.91;5092089;28;20408;-61
2022/04/18 11:06:45;;;;;;;3.45;3.00;;;;;;;22.41;30.92;100151.88;5092048;28;20059;-61
2022/04/18 11:09:15;;;;;;;4.10;3.17;;;;;;;23.11;30.36;100152.03;5091932;28;20052;-61
2022/04/18 11:11:54;;;;;;;4.10;3.13;;;;;;;23.85;29.39;100147.94;5092002;28;20052;-61
2022/04/18 11:14:26;;;;;;;4.07;2.65;;;;;;;24.60;28.59;100141.59;5090609;28;20059;-60
2022/04/18 11:16:58;;;;;;;4.18;2.80;;;;;;;25.31;27.81;100141.94;5090156;28;20048;-60
2022/04/18 11:19:31;;;;;;;3.78;2.70;;;;;;;25.97;27.07;100140.72;5089202;28;20092;-62
2022/04/18 11:22:01;;;;;;;3.50;2.85;;;;;;;26.56;26.45;100136.56;5090336;28;20051;-61
2022/04/18 11:24:44;;;;;;;4.43;2.60;;;;;;;27.12;26.56;100131.75;5091598;28;20401;-61
2022/04/18 11:27:14;;;;;;;3.00;2.70;;;;;;;27.62;24.65;100126.56;5091952;28;20040;-62
2022/04/18 11:29:45;;;;;;;3.25;2.50;;;;;;;28.01;24.40;100127.19;5091569;28;20048;-61
2022/04/18 11:32:16;;;;;;;3.80;3.00;;;;;;;28.35;23.15;100122.06;5091409;28;20052;-61
2022/04/18 11:34:46;;;;;;;3.30;2.63;;;;;;;28.70;24.43;100122.09;5091977;28;20101;-61
2022/04/18 11:37:27;;;;;;;2.78;2.58;;;;;;;29.03;22.54;100125.25;5091489;28;20091;-61
2022/04/18 11:39:56;;;;;;;3.15;2.60;;;;;;;29.44;22.06;100116.22;5089942;28;20549;-61
2022/04/18 11:42:26;;;;;;;4.40;2.72;;;;;;;29.79;22.42;100115.31;5090147;28;20102;-61
2022/04/18 11:44:54;;;;;;;3.08;2.70;;;;;;;30.11;22.44;100114.69;5090164;28;20048;-61
2022/04/18 11:47:33;;;;;;;3.33;2.60;;;;;;;30.40;22.06;100107.19;5089987;28;20067;-61
2022/04/18 11:50:02;;;;;;;2.67;2.47;;;;;;;30.67;21.24;100112.59;5089949;28;20048;-62